sensor_id;sensor_type;location;lat;lon;timestamp;pressure;altitude;pressure_sealevel;temperature;humidity
10202;BME280;5143;42.584;23.164;2023-04-05T00:02:26;91955.63;;;-0.68;100.00
10202;BME280;5143;42.584;23.164;2023-04-05T00:04:54;91957.69;;;-0.60;100.00
10202;BME280;5143;42.584;23.164;2023-04-05T00:07:22;91962.72;;;-0.49;100.00
10202;BME280;5143;42.584;23.164;2023-04-05T00:09:52;91956.28;;;-0.51;100.00
10202;BME280;5143;42.584;23.164;2023-04-05T00:12:19;91958.78;;;-0.44;100.00
10202;BME280;5143;42.584;23.164;2023-04-05T00:14:46;91954.72;;;-0.36;100.00
10202;BME280;5143;42.584;23.164;2023-04-05T00:17:13;91962.13;;;-0.28;100.00
10202;BME280;5143;42.584;23.164;2023-04-05T00:19:40;91967.56;;;-0.31;100.00
10202;BME280;5143;42.584;23.164;2023-04-05T00:22:07;91968.34;;;-0.31;100.00
10202;BME280;5143;42.584;23.164;2023-04-05T00:24:35;91968.13;;;-0.36;100.00
10202;BME280;5143;42.584;23.164;2023-04-05T00:27:07;91963.06;;;-0.22;100.00
10202;BME280;5143;42.584;23.164;2023-04-05T00:29:34;91954.28;;;-0.22;100.00
10202;BME280;5143;42.584;23.164;2023-04-05T00:32:02;91965.66;;;-0.18;100.00
10202;BME280;5143;42.584;23.164;2023-04-05T00:34:29;91965.44;;;-0.11;100.00
10202;BME280;5143;42.584;23.164;2023-04-05T00:36:57;91969.41;;;-0.16;100.00
10202;BME280;5143;42.584;23.164;2023-04-05T00:39:24;91972.19;;;-0.19;100.00
10202;BME280;5143;42.584;23.164;2023-04-05T00:41:52;91971.88;;;-0.21;100.00
10202;BME280;5143;42.584;23.164;2023-04-05T00:44:20;91976.25;;;-0.27;100.00
10202;BME280;5143;42.584;23.164;2023-04-05T00:46:47;91972.31;;;-0.23;100.00
10202;BME280;5143;42.584;23.164;2023-04-05T00:49:14;91971.22;;;-0.25;100.00
10202;BME280;5143;42.584;23.164;2023-04-05T00:51:42;91971.78;;;-0.30;100.00
10202;BME280;5143;42.584;23.164;2023-04-05T00:54:09;91974.44;;;-0.30;100.00
10202;BME280;5143;42.584;23.164;2023-04-05T00:56:36;91979.59;;;-0.23;100.00
10202;BME280;5143;42.584;23.164;2023-04-05T00:59:04;91975.41;;;-0.24;100.00
10202;BME280;5143;42.584;23.164;2023-04-05T01:01:33;91978.09;;;-0.37;100.00
10202;BME280;5143;42.584;23.164;2023-04-05T01:04:02;91979.69;;;-0.39;100.00
10202;BME280;5143;42.584;23.164;2023-04-05T01:06:51;91988.38;;;-0.35;100.00
10202;BME280;5143;42.584;23.164;2023-04-05T01:09:32;91987.41;;;-0.41;100.00
10202;BME280;5143;42.584;23.164;2023-04-05T01:12:02;91990.41;;;-0.39;100.00
10202;BME280;5143;42.584;23.164;2023-04-05T01:14:30;91994.38;;;-0.31;100.00
10202;BME280;5143;42.584;23.164;2023-04-05T01:16:58;91999.75;;;-0.31;100.00
10202;BME280;5143;42.584;23.164;2023-04-05T01:19:27;91998.25;;;-0.32;100.00
10202;BME280;5143;42.584;23.164;2023-04-05T01:22:14;91994.94;;;-0.36;100.00
10202;BME280;5143;42.584;23.164;2023-04-05T01:25:06;91994.59;;;-0.38;100.00
10202;BME280;5143;42.584;23.164;2023-04-05T01:27:52;91997.81;;;-0.31;100.00
10202;BME280;5143;42.584;23.164;2023-04-05T01:30:23;92000.16;;;-0.45;100.00
10202;BME280;5143;42.584;23.164;2023-04-05T01:33:00;91997.78;;;-0.43;100.00
10202;BME280;5143;42.584;23.164;2023-04-05T01:35:36;92008.81;;;-0.54;100.00
10202;BME280;5143;42.584;23.164;2023-04-05T01:38:08;92001.84;;;-0.51;100.00
10202;BME280;5143;42.584;23.164;2023-04-05T01:40:39;92009.28;;;-0.55;100.00
10202;BME280;5143;42.584;23.164;2023-04-05T01:43:12;92008.72;;;-0.50;100.00
10202;BME280;5143;42.584;23.164;2023-04-05T01:45:40;92010.88;;;-0.45;100.00
10202;BME280;5143;42.584;23.164;2023-04-05T01:48:07;92007.13;;;-0.48;100.00
10202;BME280;5143;42.584;23.164;2023-04-05T01:50:34;92001.78;;;-0.48;100.00
10202;BME280;5143;42.584;23.164;2023-04-05T01:53:01;92006.81;;;-0.37;100.00
10202;BME280;5143;42.584;23.164;2023-04-05T01:55:28;92000.69;;;-0.38;100.00
10202;BME280;5143;42.584;23.164;2023-04-05T01:57:56;92007.34;;;-0.42;100.00
10202;BME280;5143;42.584;23.164;2023-04-05T02:00:23;91999.00;;;-0.44;100.00
10202;BME280;5143;42.584;23.164;2023-04-05T02:02:51;92009.19;;;-0.39;100.00
10202;BME280;5143;42.584;23.164;2023-04-05T02:05:18;92001.78;;;-0.35;100.00
10202;BME280;5143;42.584;23.164;2023-04-05T02:07:45;92009.72;;;-0.32;100.00
10202;BME280;5143;42.584;23.164;2023-04-05T02:10:13;92005.31;;;-0.38;100.00
10202;BME280;5143;42.584;23.164;2023-04-05T02:12:40;92013.03;;;-0.40;100.00
10202;BME280;5143;42.584;23.164;2023-04-05T02:15:08;92011.66;;;-0.32;100.00
10202;BME280;5143;42.584;23.164;2023-04-05T02:17:35;92010.56;;;-0.35;100.00
10202;BME280;5143;42.584;23.164;2023-04-05T02:20:07;92015.63;;;-0.24;100.00
10202;BME280;5143;42.584;23.164;2023-04-05T02:22:35;92017.34;;;-0.30;100.00
10202;BME280;5143;42.584;23.164;2023-04-05T02:25:02;92016.03;;;-0.38;100.00
10202;BME280;5143;42.584;23.164;2023-04-05T02:27:30;92012.50;;;-0.35;100.00
10202;BME280;5143;42.584;23.164;2023-04-05T02:29:57;92013.69;;;-0.36;100.00
10202;BME280;5143;42.584;23.164;2023-04-05T02:32:24;92013.38;;;-0.26;100.00
10202;BME280;5143;42.584;23.164;2023-04-05T02:34:51;92006.41;;;-0.23;100.00
10202;BME280;5143;42.584;23.164;2023-04-05T02:37:20;92000.06;;;-0.29;100.00
10202;BME280;5143;42.584;23.164;2023-04-05T02:39:47;92009.84;;;-0.23;100.00
10202;BME280;5143;42.584;23.164;2023-04-05T02:42:13;92012.84;;;-0.33;100.00
10202;BME280;5143;42.584;23.164;2023-04-05T02:44:40;92015.84;;;-0.31;100.00
10202;BME280;5143;42.584;23.164;2023-04-05T02:47:07;92022.59;;;-0.27;100.00
10202;BME280;5143;42.584;23.164;2023-04-05T02:49:34;92019.06;;;-0.36;100.00
10202;BME280;5143;42.584;23.164;2023-04-05T02:52:01;92016.25;;;-0.45;100.00
10202;BME280;5143;42.584;23.164;2023-04-05T02:54:29;92007.66;;;-0.40;100.00
10202;BME280;5143;42.584;23.164;2023-04-05T02:56:56;92011.56;;;-0.41;100.00
10202;BME280;5143;42.584;23.164;2023-04-05T02:59:26;91993.50;;;-0.53;100.00
10202;BME280;5143;42.584;23.164;2023-04-05T03:01:53;92007.97;;;-0.38;100.00
10202;BME280;5143;42.584;23.164;2023-04-05T03:04:20;92011.19;;;-0.56;100.00
10202;BME280;5143;42.584;23.164;2023-04-05T03:06:51;92005.09;;;-0.44;100.00
10202;BME280;5143;42.584;23.164;2023-04-05T03:09:19;92009.72;;;-0.32;100.00
10202;BME280;5143;42.584;23.164;2023-04-05T03:11:48;92006.63;;;-0.30;100.00
10202;BME280;5143;42.584;23.164;2023-04-05T03:14:15;92012.00;;;-0.30;100.00
10202;BME280;5143;42.584;23.164;2023-04-05T03:16:42;92013.16;;;-0.31;100.00
10202;BME280;5143;42.584;23.164;2023-04-05T03:19:09;92019.16;;;-0.27;100.00
10202;BME280;5143;42.584;23.164;2023-04-05T03:21:36;92008.03;;;-0.26;100.00
10202;BME280;5143;42.584;23.164;2023-04-05T03:24:04;92001.47;;;-0.37;100.00
10202;BME280;5143;42.584;23.164;2023-04-05T03:26:32;92001.38;;;-0.21;100.00
10202;BME280;5143;42.584;23.164;2023-04-05T03:29:00;92010.06;;;-0.17;100.00
10202;BME280;5143;42.584;23.164;2023-04-05T03:31:27;92013.91;;;-0.18;100.00
10202;BME280;5143;42.584;23.164;2023-04-05T03:33:54;92010.38;;;-0.28;100.00
10202;BME280;5143;42.584;23.164;2023-04-05T03:36:22;92005.03;;;-0.28;100.00
10202;BME280;5143;42.584;23.164;2023-04-05T03:38:49;92006.63;;;-0.30;100.00
10202;BME280;5143;42.584;23.164;2023-04-05T03:41:16;92008.97;;;-0.32;100.00
10202;BME280;5143;42.584;23.164;2023-04-05T03:43:43;92008.34;;;-0.36;100.00
10202;BME280;5143;42.584;23.164;2023-04-05T03:46:11;92002.22;;;-0.37;100.00
10202;BME280;5143;42.584;23.164;2023-04-05T03:48:38;92015.84;;;-0.31;100.00
10202;BME280;5143;42.584;23.164;2023-04-05T03:51:05;92020.22;;;-0.25;100.00
10202;BME280;5143;42.584;23.164;2023-04-05T03:53:32;92017.75;;;-0.19;100.00
10202;BME280;5143;42.584;23.164;2023-04-05T03:55:59;92027.44;;;-0.09;100.00
10202;BME280;5143;42.584;23.164;2023-04-05T03:58:26;92028.63;;;-0.10;100.00
10202;BME280;5143;42.584;23.164;2023-04-05T04:00:53;92022.94;;;-0.12;100.00
10202;BME280;5143;42.584;23.164;2023-04-05T04:03:22;92032.81;;;-0.09;100.00
10202;BME280;5143;42.584;23.164;2023-04-05T04:05:50;92037.75;;;-0.20;100.00
10202;BME280;5143;42.584;23.164;2023-04-05T04:08:17;92032.16;;;-0.26;100.00
10202;BME280;5143;42.584;23.164;2023-04-05T04:10:45;92036.53;;;-0.19;100.00
10202;BME280;5143;42.584;23.164;2023-04-05T04:13:12;92042.03;;;-0.10;100.00
10202;BME280;5143;42.584;23.164;2023-04-05T04:15:38;92039.25;;;-0.07;100.00
10202;BME280;5143;42.584;23.164;2023-04-05T04:18:05;92040.53;;;0.02;100.00
10202;BME280;5143;42.584;23.164;2023-04-05T04:20:34;92043.00;;;0.09;100.00
10202;BME280;5143;42.584;23.164;2023-04-05T04:23:01;92044.94;;;-0.05;100.00
10202;BME280;5143;42.584;23.164;2023-04-05T04:25:28;92044.19;;;-0.05;100.00
10202;BME280;5143;42.584;23.164;2023-04-05T04:27:56;92052.66;;;-0.07;100.00
10202;BME280;5143;42.584;23.164;2023-04-05T04:30:23;92046.53;;;-0.07;100.00
10202;BME280;5143;42.584;23.164;2023-04-05T04:32:50;92051.28;;;-0.11;100.00
10202;BME280;5143;42.584;23.164;2023-04-05T04:35:18;92059.63;;;-0.09;100.00
10202;BME280;5143;42.584;23.164;2023-04-05T04:37:52;92054.06;;;-0.02;100.00
10202;BME280;5143;42.584;23.164;2023-04-05T04:40:22;92055.75;;;-0.08;100.00
10202;BME280;5143;42.584;23.164;2023-04-05T04:42:50;92063.72;;;-0.17;100.00
10202;BME280;5143;42.584;23.164;2023-04-05T04:45:18;92059.53;;;-0.06;100.00
10202;BME280;5143;42.584;23.164;2023-04-05T04:47:46;92057.59;;;-0.05;100.00
10202;BME280;5143;42.584;23.164;2023-04-05T04:50:14;92067.38;;;-0.11;100.00
10202;BME280;5143;42.584;23.164;2023-04-05T04:52:44;92059.53;;;-0.06;100.00
10202;BME280;5143;42.584;23.164;2023-04-05T04:55:13;92060.81;;;-0.10;100.00
10202;BME280;5143;42.584;23.164;2023-04-05T04:57:40;92070.47;;;-0.13;100.00
10202;BME280;5143;42.584;23.164;2023-04-05T05:00:07;92053.28;;;-0.03;100.00
10202;BME280;5143;42.584;23.164;2023-04-05T05:02:39;92062.44;;;0.13;100.00
10202;BME280;5143;42.584;23.164;2023-04-05T05:05:07;92056.97;;;0.04;100.00
10202;BME280;5143;42.584;23.164;2023-04-05T05:07:34;92060.41;;;0.04;100.00
10202;BME280;5143;42.584;23.164;2023-04-05T05:10:02;92062.22;;;0.07;100.00
10202;BME280;5143;42.584;23.164;2023-04-05T05:12:32;92062.75;;;0.15;100.00
10202;BME280;5143;42.584;23.164;2023-04-05T05:14:59;92059.34;;;0.27;100.00
10202;BME280;5143;42.584;23.164;2023-04-05T05:17:26;92063.94;;;0.39;100.00
10202;BME280;5143;42.584;23.164;2023-04-05T05:19:52;92077.44;;;0.60;100.00
10202;BME280;5143;42.584;23.164;2023-04-05T05:22:19;92085.06;;;0.75;100.00
10202;BME280;5143;42.584;23.164;2023-04-05T05:24:46;92089.59;;;0.52;100.00
10202;BME280;5143;42.584;23.164;2023-04-05T05:27:13;92087.00;;;0.62;100.00
10202;BME280;5143;42.584;23.164;2023-04-05T05:29:42;92085.41;;;0.77;100.00
10202;BME280;5143;42.584;23.164;2023-04-05T05:32:09;92087.13;;;0.71;100.00
10202;BME280;5143;42.584;23.164;2023-04-05T05:34:40;92088.59;;;0.72;100.00
10202;BME280;5143;42.584;23.164;2023-04-05T05:37:09;92086.97;;;0.87;100.00
10202;BME280;5143;42.584;23.164;2023-04-05T05:39:36;92095.44;;;0.98;100.00
10202;BME280;5143;42.584;23.164;2023-04-05T05:42:03;92096.16;;;1.24;100.00
10202;BME280;5143;42.584;23.164;2023-04-05T05:44:30;92094.63;;;1.23;100.00
10202;BME280;5143;42.584;23.164;2023-04-05T05:46:58;92089.63;;;1.12;100.00
10202;BME280;5143;42.584;23.164;2023-04-05T05:49:25;92098.09;;;1.10;100.00
10202;BME280;5143;42.584;23.164;2023-04-05T05:51:52;92074.16;;;1.03;100.00
10202;BME280;5143;42.584;23.164;2023-04-05T05:54:19;92084.84;;;1.29;100.00
10202;BME280;5143;42.584;23.164;2023-04-05T05:56:46;92112.06;;;1.18;100.00
10202;BME280;5143;42.584;23.164;2023-04-05T05:59:13;92104.88;;;1.15;100.00
10202;BME280;5143;42.584;23.164;2023-04-05T06:01:40;92110.25;;;1.15;100.00
10202;BME280;5143;42.584;23.164;2023-04-05T06:04:12;92109.66;;;1.33;100.00
10202;BME280;5143;42.584;23.164;2023-04-05T06:06:39;92108.59;;;1.52;100.00
10202;BME280;5143;42.584;23.164;2023-04-05T06:09:07;92116.75;;;1.83;100.00
10202;BME280;5143;42.584;23.164;2023-04-05T06:11:34;92104.75;;;1.74;100.00
10202;BME280;5143;42.584;23.164;2023-04-05T06:14:01;92113.28;;;1.95;100.00
10202;BME280;5143;42.584;23.164;2023-04-05T06:16:28;92116.91;;;2.31;100.00
10202;BME280;5143;42.584;23.164;2023-04-05T06:18:56;92120.00;;;2.52;100.00
10202;BME280;5143;42.584;23.164;2023-04-05T06:21:24;92119.91;;;2.64;100.00
10202;BME280;5143;42.584;23.164;2023-04-05T06:23:51;92121.88;;;2.73;100.00
10202;BME280;5143;42.584;23.164;2023-04-05T06:26:20;92116.00;;;2.96;100.00
10202;BME280;5143;42.584;23.164;2023-04-05T06:28:51;92138.00;;;3.04;100.00
10202;BME280;5143;42.584;23.164;2023-04-05T06:31:19;92132.88;;;2.87;100.00
10202;BME280;5143;42.584;23.164;2023-04-05T06:33:46;92139.59;;;2.83;100.00
10202;BME280;5143;42.584;23.164;2023-04-05T06:36:13;92126.84;;;2.74;100.00
10202;BME280;5143;42.584;23.164;2023-04-05T06:38:42;92127.78;;;2.50;100.00
10202;BME280;5143;42.584;23.164;2023-04-05T06:41:09;92129.63;;;2.31;100.00
10202;BME280;5143;42.584;23.164;2023-04-05T06:43:36;92135.06;;;2.40;100.00
10202;BME280;5143;42.584;23.164;2023-04-05T06:46:02;92146.25;;;2.69;100.00
10202;BME280;5143;42.584;23.164;2023-04-05T06:48:33;92145.66;;;3.05;100.00
10202;BME280;5143;42.584;23.164;2023-04-05T06:51:02;92158.69;;;3.07;100.00
10202;BME280;5143;42.584;23.164;2023-04-05T06:53:29;92153.22;;;2.88;100.00
10202;BME280;5143;42.584;23.164;2023-04-05T06:55:58;92154.75;;;2.28;100.00
10202;BME280;5143;42.584;23.164;2023-04-05T06:58:25;92158.78;;;2.54;100.00
10202;BME280;5143;42.584;23.164;2023-04-05T07:00:53;92167.69;;;2.42;100.00
10202;BME280;5143;42.584;23.164;2023-04-05T07:03:20;92161.47;;;2.54;100.00
10202;BME280;5143;42.584;23.164;2023-04-05T07:05:51;92162.06;;;2.49;100.00
10202;BME280;5143;42.584;23.164;2023-04-05T07:08:19;92168.94;;;2.28;100.00
10202;BME280;5143;42.584;23.164;2023-04-05T07:10:47;92163.38;;;2.23;100.00
10202;BME280;5143;42.584;23.164;2023-04-05T07:13:15;92161.41;;;2.45;100.00
10202;BME280;5143;42.584;23.164;2023-04-05T07:15:42;92162.38;;;2.29;100.00
10202;BME280;5143;42.584;23.164;2023-04-05T07:18:10;92170.16;;;2.06;100.00
10202;BME280;5143;42.584;23.164;2023-04-05T07:20:37;92180.28;;;2.02;100.00
10202;BME280;5143;42.584;23.164;2023-04-05T07:23:04;92177.97;;;1.91;100.00
10202;BME280;5143;42.584;23.164;2023-04-05T07:25:31;92184.53;;;1.90;100.00
10202;BME280;5143;42.584;23.164;2023-04-05T07:27:58;92185.28;;;1.91;100.00
10202;BME280;5143;42.584;23.164;2023-04-05T07:30:27;92189.81;;;1.94;100.00
10202;BME280;5143;42.584;23.164;2023-04-05T07:32:56;92192.09;;;1.83;100.00
10202;BME280;5143;42.584;23.164;2023-04-05T07:35:22;92188.16;;;1.74;100.00
10202;BME280;5143;42.584;23.164;2023-04-05T07:37:50;92185.56;;;1.84;100.00
10202;BME280;5143;42.584;23.164;2023-04-05T07:40:17;92181.16;;;1.77;100.00
10202;BME280;5143;42.584;23.164;2023-04-05T07:42:44;92188.69;;;2.04;100.00
10202;BME280;5143;42.584;23.164;2023-04-05T07:45:11;92194.13;;;2.13;100.00
10202;BME280;5143;42.584;23.164;2023-04-05T07:47:39;92185.44;;;2.30;100.00
10202;BME280;5143;42.584;23.164;2023-04-05T07:50:07;92193.25;;;2.37;100.00
10202;BME280;5143;42.584;23.164;2023-04-05T07:52:36;92197.47;;;2.38;100.00
10202;BME280;5143;42.584;23.164;2023-04-05T07:55:04;92211.41;;;2.24;100.00
10202;BME280;5143;42.584;23.164;2023-04-05T07:57:31;92206.59;;;1.98;100.00
10202;BME280;5143;42.584;23.164;2023-04-05T07:59:58;92208.16;;;2.08;100.00
10202;BME280;5143;42.584;23.164;2023-04-05T08:02:25;92220.78;;;2.20;100.00
10202;BME280;5143;42.584;23.164;2023-04-05T08:04:53;92223.94;;;2.18;100.00
10202;BME280;5143;42.584;23.164;2023-04-05T08:07:21;92224.91;;;1.90;100.00
10202;BME280;5143;42.584;23.164;2023-04-05T08:09:48;92210.69;;;1.55;100.00
10202;BME280;5143;42.584;23.164;2023-04-05T08:12:15;92223.84;;;1.88;100.00
10202;BME280;5143;42.584;23.164;2023-04-05T08:14:42;92226.69;;;1.71;100.00
10202;BME280;5143;42.584;23.164;2023-04-05T08:17:09;92223.91;;;1.62;100.00
10202;BME280;5143;42.584;23.164;2023-04-05T08:19:36;92218.00;;;1.55;100.00
10202;BME280;5143;42.584;23.164;2023-04-05T08:22:04;92213.09;;;1.53;100.00
10202;BME280;5143;42.584;23.164;2023-04-05T08:24:31;92229.81;;;1.70;100.00
10202;BME280;5143;42.584;23.164;2023-04-05T08:26:58;92224.47;;;1.92;100.00
10202;BME280;5143;42.584;23.164;2023-04-05T08:29:25;92225.56;;;1.82;100.00
10202;BME280;5143;42.584;23.164;2023-04-05T08:31:55;92239.41;;;2.05;100.00
10202;BME280;5143;42.584;23.164;2023-04-05T08:34:22;92237.41;;;2.18;100.00
10202;BME280;5143;42.584;23.164;2023-04-05T08:36:49;92225.38;;;2.32;100.00
10202;BME280;5143;42.584;23.164;2023-04-05T08:39:17;92233.75;;;2.56;100.00
10202;BME280;5143;42.584;23.164;2023-04-05T08:41:49;92222.34;;;2.73;100.00
10202;BME280;5143;42.584;23.164;2023-04-05T08:44:21;92222.69;;;3.15;100.00
10202;BME280;5143;42.584;23.164;2023-04-05T08:46:49;92231.50;;;3.07;100.00
10202;BME280;5143;42.584;23.164;2023-04-05T08:49:16;92244.19;;;3.37;100.00
10202;BME280;5143;42.584;23.164;2023-04-05T08:51:44;92249.84;;;3.21;100.00
10202;BME280;5143;42.584;23.164;2023-04-05T08:54:11;92250.22;;;3.50;100.00
10202;BME280;5143;42.584;23.164;2023-04-05T08:56:41;92251.00;;;3.50;99.81
10202;BME280;5143;42.584;23.164;2023-04-05T08:59:09;92261.97;;;3.74;95.82
10202;BME280;5143;42.584;23.164;2023-04-05T09:01:42;92257.97;;;3.88;98.96
10202;BME280;5143;42.584;23.164;2023-04-05T09:04:13;92261.75;;;4.27;95.89
10202;BME280;5143;42.584;23.164;2023-04-05T09:06:43;92264.78;;;4.38;88.28
10202;BME280;5143;42.584;23.164;2023-04-05T09:09:11;92270.75;;;4.24;84.39
10202;BME280;5143;42.584;23.164;2023-04-05T09:11:40;92276.63;;;4.58;83.55
10202;BME280;5143;42.584;23.164;2023-04-05T09:14:08;92248.56;;;4.10;88.27
10202;BME280;5143;42.584;23.164;2023-04-05T09:16:37;92266.53;;;3.86;86.01
10202;BME280;5143;42.584;23.164;2023-04-05T09:19:05;92262.25;;;3.58;91.86
10202;BME280;5143;42.584;23.164;2023-04-05T09:21:59;92256.75;;;3.80;93.66
10202;BME280;5143;42.584;23.164;2023-04-05T09:24:30;92247.59;;;3.77;91.52
10202;BME280;5143;42.584;23.164;2023-04-05T09:27:06;92255.75;;;4.04;94.52
10202;BME280;5143;42.584;23.164;2023-04-05T09:29:33;92258.53;;;3.74;93.81
10202;BME280;5143;42.584;23.164;2023-04-05T09:32:00;92261.09;;;3.77;90.76
10202;BME280;5143;42.584;23.164;2023-04-05T09:34:29;92263.47;;;3.66;90.36
10202;BME280;5143;42.584;23.164;2023-04-05T09:36:57;92271.03;;;3.98;88.88
10202;BME280;5143;42.584;23.164;2023-04-05T09:39:29;92256.00;;;3.79;89.35
10202;BME280;5143;42.584;23.164;2023-04-05T09:42:09;92254.81;;;3.80;94.61
10202;BME280;5143;42.584;23.164;2023-04-05T09:44:47;92260.88;;;4.11;89.88
10202;BME280;5143;42.584;23.164;2023-04-05T09:47:16;92254.44;;;4.36;90.09
10202;BME280;5143;42.584;23.164;2023-04-05T09:49:43;92258.78;;;4.34;91.56
10202;BME280;5143;42.584;23.164;2023-04-05T09:52:20;92253.81;;;4.23;92.16
10202;BME280;5143;42.584;23.164;2023-04-05T09:54:47;92249.59;;;4.13;92.03
10202;BME280;5143;42.584;23.164;2023-04-05T09:57:17;92236.22;;;3.91;89.57
10202;BME280;5143;42.584;23.164;2023-04-05T09:59:45;92231.75;;;3.97;92.94
10202;BME280;5143;42.584;23.164;2023-04-05T10:02:12;92251.22;;;4.01;89.09
10202;BME280;5143;42.584;23.164;2023-04-05T10:04:39;92238.94;;;4.00;91.46
10202;BME280;5143;42.584;23.164;2023-04-05T10:07:08;92253.63;;;3.99;88.56
10202;BME280;5143;42.584;23.164;2023-04-05T10:09:37;92252.16;;;4.07;89.66
10202;BME280;5143;42.584;23.164;2023-04-05T10:12:05;92242.34;;;3.65;91.68
10202;BME280;5143;42.584;23.164;2023-04-05T10:14:34;92241.13;;;3.56;96.63
10202;BME280;5143;42.584;23.164;2023-04-05T10:17:07;92243.06;;;3.16;94.98
10202;BME280;5143;42.584;23.164;2023-04-05T10:20:04;92236.94;;;3.16;96.13
10202;BME280;5143;42.584;23.164;2023-04-05T10:22:36;92243.31;;;3.49;92.65
10202;BME280;5143;42.584;23.164;2023-04-05T10:25:12;92246.31;;;3.42;93.57
10202;BME280;5143;42.584;23.164;2023-04-05T10:27:46;92240.88;;;3.33;97.34
10202;BME280;5143;42.584;23.164;2023-04-05T10:30:15;92250.94;;;3.32;91.53
10202;BME280;5143;42.584;23.164;2023-04-05T10:32:53;92252.72;;;3.84;94.02
10202;BME280;5143;42.584;23.164;2023-04-05T10:35:33;92244.66;;;4.02;92.68
10202;BME280;5143;42.584;23.164;2023-04-05T10:38:11;92252.59;;;4.24;93.45
10202;BME280;5143;42.584;23.164;2023-04-05T10:40:40;92253.00;;;3.77;85.83
10202;BME280;5143;42.584;23.164;2023-04-05T10:43:14;92253.06;;;3.37;88.50
10202;BME280;5143;42.584;23.164;2023-04-05T10:45:43;92259.41;;;3.62;89.59
10202;BME280;5143;42.584;23.164;2023-04-05T10:48:15;92257.16;;;3.51;90.37
10202;BME280;5143;42.584;23.164;2023-04-05T10:50:46;92261.25;;;3.83;90.71
10202;BME280;5143;42.584;23.164;2023-04-05T10:53:14;92268.06;;;4.05;82.70
10202;BME280;5143;42.584;23.164;2023-04-05T10:55:43;92261.75;;;4.27;84.91
10202;BME280;5143;42.584;23.164;2023-04-05T10:58:12;92264.31;;;4.12;83.77
10202;BME280;5143;42.584;23.164;2023-04-05T11:00:39;92257.09;;;4.18;81.78
10202;BME280;5143;42.584;23.164;2023-04-05T11:03:08;92269.13;;;4.53;81.03
10202;BME280;5143;42.584;23.164;2023-04-05T11:05:35;92269.88;;;4.36;80.45
10202;BME280;5143;42.584;23.164;2023-04-05T11:08:05;92266.50;;;4.95;73.41
10202;BME280;5143;42.584;23.164;2023-04-05T11:10:34;92266.56;;;5.28;70.06
10202;BME280;5143;42.584;23.164;2023-04-05T11:13:08;92273.09;;;5.21;70.18
10202;BME280;5143;42.584;23.164;2023-04-05T11:15:38;92274.50;;;4.90;69.87
10202;BME280;5143;42.584;23.164;2023-04-05T11:18:08;92263.41;;;4.60;81.29
10202;BME280;5143;42.584;23.164;2023-04-05T11:20:40;92256.34;;;4.63;77.47
10202;BME280;5143;42.584;23.164;2023-04-05T11:23:08;92255.47;;;4.39;81.97
10202;BME280;5143;42.584;23.164;2023-04-05T11:25:39;92268.81;;;4.60;79.79
10202;BME280;5143;42.584;23.164;2023-04-05T11:28:21;92262.22;;;4.43;79.83
10202;BME280;5143;42.584;23.164;2023-04-05T11:30:50;92268.66;;;4.82;81.84
10202;BME280;5143;42.584;23.164;2023-04-05T11:33:53;92279.03;;;4.38;74.29
10202;BME280;5143;42.584;23.164;2023-04-05T11:36:37;92274.97;;;4.61;73.54
10202;BME280;5143;42.584;23.164;2023-04-05T11:39:22;92271.53;;;4.69;74.75
10202;BME280;5143;42.584;23.164;2023-04-05T11:41:53;92270.19;;;4.47;75.53
10202;BME280;5143;42.584;23.164;2023-04-05T11:44:21;92262.81;;;4.38;78.70
10202;BME280;5143;42.584;23.164;2023-04-05T11:46:48;92271.84;;;4.44;71.86
10202;BME280;5143;42.584;23.164;2023-04-05T11:49:18;92276.16;;;4.51;75.53
10202;BME280;5143;42.584;23.164;2023-04-05T11:51:47;92279.59;;;4.78;71.55
10202;BME280;5143;42.584;23.164;2023-04-05T11:54:27;92271.03;;;4.89;70.84
10202;BME280;5143;42.584;23.164;2023-04-05T11:56:55;92265.19;;;4.72;79.96
10202;BME280;5143;42.584;23.164;2023-04-05T11:59:28;92249.28;;;4.74;74.57
10202;BME280;5143;42.584;23.164;2023-04-05T12:01:58;92259.06;;;4.54;78.51
10202;BME280;5143;42.584;23.164;2023-04-05T12:04:26;92265.97;;;4.55;74.13
10202;BME280;5143;42.584;23.164;2023-04-05T12:07:18;92256.06;;;4.15;81.02
10202;BME280;5143;42.584;23.164;2023-04-05T12:09:59;92256.75;;;3.80;84.00
10202;BME280;5143;42.584;23.164;2023-04-05T12:12:26;92254.25;;;4.03;85.82
10202;BME280;5143;42.584;23.164;2023-04-05T12:14:59;92247.38;;;4.11;84.67
10202;BME280;5143;42.584;23.164;2023-04-05T12:17:40;92258.44;;;4.04;77.12
10202;BME280;5143;42.584;23.164;2023-04-05T12:20:10;92249.75;;;4.00;78.67
10202;BME280;5143;42.584;23.164;2023-04-05T12:22:38;92256.81;;;3.98;81.45
10202;BME280;5143;42.584;23.164;2023-04-05T12:25:07;92247.31;;;3.75;79.73
10202;BME280;5143;42.584;23.164;2023-04-05T12:27:34;92247.31;;;3.93;80.51
10202;BME280;5143;42.584;23.164;2023-04-05T12:30:09;92254.25;;;3.94;82.74
10202;BME280;5143;42.584;23.164;2023-04-05T12:32:46;92245.53;;;3.81;83.56
10202;BME280;5143;42.584;23.164;2023-04-05T12:35:18;92242.50;;;3.79;82.43
10202;BME280;5143;42.584;23.164;2023-04-05T12:37:45;92261.06;;;3.68;84.22
10202;BME280;5143;42.584;23.164;2023-04-05T12:40:12;92249.34;;;3.53;87.13
10202;BME280;5143;42.584;23.164;2023-04-05T12:42:40;92244.59;;;3.75;89.34
10202;BME280;5143;42.584;23.164;2023-04-05T12:45:10;92239.41;;;4.08;88.73
10202;BME280;5143;42.584;23.164;2023-04-05T12:47:48;92249.47;;;4.16;85.00
10202;BME280;5143;42.584;23.164;2023-04-05T12:50:18;92246.00;;;4.16;81.90
10202;BME280;5143;42.584;23.164;2023-04-05T12:52:52;92254.25;;;4.12;81.17
10202;BME280;5143;42.584;23.164;2023-04-05T12:55:19;92251.09;;;4.23;85.56
10202;BME280;5143;42.584;23.164;2023-04-05T12:57:51;92250.03;;;4.21;84.20
10202;BME280;5143;42.584;23.164;2023-04-05T13:00:19;92257.28;;;4.14;82.12
10202;BME280;5143;42.584;23.164;2023-04-05T13:02:49;92256.34;;;4.27;81.85
10202;BME280;5143;42.584;23.164;2023-04-05T13:05:20;92253.66;;;4.17;84.19
10202;BME280;5143;42.584;23.164;2023-04-05T13:07:47;92259.69;;;4.31;85.55
10202;BME280;5143;42.584;23.164;2023-04-05T13:10:14;92255.16;;;4.00;85.58
10202;BME280;5143;42.584;23.164;2023-04-05T13:12:41;92265.38;;;4.14;82.01